createdAt,value
2019-03-10T00:02:41.726Z,84.7
2019-03-10T00:07:41.690Z,84.7
2019-03-10T00:12:28.239Z,84.5
2019-03-10T00:17:29.347Z,84.7
2019-03-10T00:22:28.584Z,84.7
2019-03-10T00:27:28.222Z,84.5
2019-03-10T00:32:27.917Z,84.5
2019-03-10T00:37:28.030Z,84.4
2019-03-10T00:42:28.114Z,84.4
2019-03-10T00:47:28.630Z,84.6
2019-03-10T00:52:27.717Z,84.6
2019-03-10T00:57:27.905Z,84.7
2019-03-10T01:02:28.269Z,84.5
2019-03-10T01:07:28.763Z,84.5
2019-03-10T01:12:27.948Z,84.6
2019-03-10T01:17:29.545Z,84.5
2019-03-10T01:22:28.672Z,84.6
2019-03-10T01:27:28.027Z,84.8
2019-03-10T01:32:28.231Z,84.8
2019-03-10T01:37:28.664Z,84.8
2019-03-10T01:42:27.745Z,84.8
2019-03-10T01:47:28.759Z,84.8
2019-03-10T01:52:29.359Z,84.7
2019-03-10T01:57:28.850Z,84.8
2019-03-10T02:02:28.726Z,84.9
2019-03-10T02:07:27.904Z,84.8
2019-03-10T02:12:28.636Z,84.9
2019-03-10T02:17:29.048Z,84.9
2019-03-10T02:22:27.727Z,84.9
2019-03-10T02:27:28.717Z,84.9
2019-03-10T02:32:28.011Z,84.8
2019-03-10T02:37:28.134Z,84.7
2019-03-10T02:42:28.571Z,84.7
2019-03-10T02:47:27.868Z,84.9
2019-03-10T02:52:28.301Z,84.8
2019-03-10T02:57:28.084Z,84.8
2019-03-10T03:02:28.208Z,84.7
2019-03-10T03:07:28.574Z,84.6
2019-03-10T03:12:29.792Z,84.5
2019-03-10T03:17:28.737Z,85.3
2019-03-10T03:22:28.552Z,85.0
2019-03-10T03:27:29.755Z,84.6
2019-03-10T03:32:28.762Z,84.4
2019-03-10T03:37:28.305Z,84.4
2019-03-10T03:42:28.554Z,84.3
2019-03-10T03:47:28.423Z,84.2
2019-03-10T03:52:27.972Z,84.1
2019-03-10T03:57:28.598Z,84.1
2019-03-10T04:02:29.542Z,84.0
2019-03-10T04:07:28.608Z,83.9
2019-03-10T04:12:28.134Z,83.8
2019-03-10T04:17:28.793Z,83.8
2019-03-10T04:22:28.164Z,83.8
2019-03-10T04:27:28.127Z,83.7
2019-03-10T04:32:28.403Z,83.7
2019-03-10T04:37:29.700Z,83.6
2019-03-10T04:42:28.686Z,83.6
2019-03-10T04:47:28.840Z,83.6
2019-03-10T04:52:28.037Z,83.5
2019-03-10T04:57:28.361Z,83.4
2019-03-10T05:02:28.461Z,83.5
2019-03-10T05:07:28.848Z,83.4
2019-03-10T05:12:27.729Z,83.5
2019-03-10T05:17:29.806Z,83.5
2019-03-10T05:22:28.399Z,83.3
2019-03-10T05:27:28.806Z,83.2
2019-03-10T05:32:29.150Z,83.0
2019-03-10T05:37:29.011Z,83.0
2019-03-10T05:42:29.072Z,83.1
2019-03-10T05:47:32.415Z,83.0
2019-03-10T05:52:28.864Z,83.2
2019-03-10T05:57:28.511Z,83.0
2019-03-10T06:02:29.279Z,83.0
2019-03-10T06:07:29.421Z,83.0
2019-03-10T06:12:29.533Z,83.1
2019-03-10T06:17:29.377Z,83.2
2019-03-10T06:22:28.588Z,83.2
2019-03-10T06:27:28.605Z,83.3
2019-03-10T06:32:29.039Z,83.5
2019-03-10T06:37:28.984Z,83.5
2019-03-10T06:42:28.962Z,83.6
2019-03-10T06:47:30.771Z,83.6
2019-03-10T06:52:28.713Z,83.8
2019-03-10T06:57:29.137Z,83.7
2019-03-10T07:02:28.826Z,83.8
2019-03-10T07:07:29.028Z,84.0
2019-03-10T07:12:28.552Z,84.2
2019-03-10T07:17:29.275Z,87.2
2019-03-10T07:22:28.619Z,89.1
2019-03-10T07:27:29.546Z,89.1
2019-03-10T07:32:28.303Z,91.5
2019-03-10T07:37:29.366Z,94.1
2019-03-10T07:42:28.760Z,95.5
2019-03-10T07:47:30.017Z,96.1
2019-03-10T07:52:29.031Z,96.8
2019-03-10T07:57:29.308Z,97.6
2019-03-10T08:02:29.024Z,98.1
2019-03-10T08:07:28.431Z,98.6
2019-03-10T08:12:29.353Z,99.0
2019-03-10T08:17:29.309Z,99.0
2019-03-10T08:22:28.782Z,99.3
2019-03-10T08:27:28.623Z,99.6
2019-03-10T08:32:28.970Z,99.9
2019-03-10T08:37:28.898Z,99.9
2019-03-10T08:42:29.112Z,99.9
2019-03-10T08:47:28.680Z,99.9
2019-03-10T08:52:28.954Z,99.9
2019-03-10T08:57:28.777Z,99.9
2019-03-10T09:02:29.101Z,99.9
2019-03-10T09:07:29.534Z,99.9
2019-03-10T09:12:28.557Z,99.9
2019-03-10T09:17:29.056Z,99.9
2019-03-10T09:22:27.887Z,99.9
2019-03-10T09:27:29.130Z,99.9
2019-03-10T09:32:28.865Z,99.9
2019-03-10T09:37:28.888Z,99.9
2019-03-10T09:42:29.074Z,99.9
2019-03-10T09:47:29.501Z,99.9
2019-03-10T09:52:28.699Z,99.9
2019-03-10T09:57:29.446Z,99.9
2019-03-10T10:02:29.480Z,99.9
2019-03-10T10:07:28.527Z,99.9
2019-03-10T10:12:28.825Z,99.9
2019-03-10T10:17:29.236Z,99.9
2019-03-10T10:22:28.544Z,99.9
2019-03-10T10:27:28.285Z,99.9
2019-03-10T10:32:29.070Z,99.9
2019-03-10T10:37:28.344Z,99.9
2019-03-10T10:42:29.184Z,99.9
2019-03-10T10:47:28.729Z,99.9
2019-03-10T10:52:28.195Z,99.9
2019-03-10T10:57:29.593Z,99.9
2019-03-10T11:02:29.044Z,99.9
2019-03-10T11:07:28.659Z,99.9
2019-03-10T11:12:28.291Z,99.9
2019-03-10T11:17:29.244Z,99.9
2019-03-10T11:22:29.044Z,99.9
2019-03-10T11:27:28.974Z,99.9
2019-03-10T11:32:30.097Z,99.9
2019-03-10T11:37:28.124Z,99.9
2019-03-10T11:42:29.571Z,99.9
2019-03-10T11:47:28.314Z,99.9
2019-03-10T11:52:28.561Z,99.9
2019-03-10T11:57:28.862Z,99.9
2019-03-10T12:02:30.331Z,99.9
2019-03-10T12:07:28.709Z,99.9
2019-03-10T12:12:29.059Z,99.9
2019-03-10T12:17:28.441Z,99.9
2019-03-10T12:22:29.874Z,99.9
2019-03-10T12:27:28.654Z,99.9
2019-03-10T12:32:29.083Z,99.9
2019-03-10T12:37:28.515Z,99.9
2019-03-10T12:42:28.968Z,99.9
2019-03-10T12:47:28.925Z,99.9
2019-03-10T12:52:28.602Z,99.9
2019-03-10T12:57:28.777Z,99.9
2019-03-10T13:02:30.564Z,99.9
2019-03-10T13:07:28.640Z,99.9
2019-03-10T13:12:28.447Z,99.9
2019-03-10T13:17:28.716Z,99.5
2019-03-10T13:22:28.949Z,99.9
2019-03-10T13:27:28.856Z,99.9
2019-03-10T13:32:28.389Z,99.9
2019-03-10T13:37:28.840Z,99.9
2019-03-10T13:42:29.142Z,99.9
2019-03-10T13:47:29.197Z,99.9
2019-03-10T13:52:29.189Z,99.9
2019-03-10T13:57:29.195Z,99.3
2019-03-10T14:02:28.554Z,99.4
2019-03-10T14:07:30.010Z,99.9
2019-03-10T14:12:28.497Z,99.9
2019-03-10T14:17:29.522Z,99.9
2019-03-10T14:22:28.505Z,96.5
2019-03-10T14:27:28.241Z,96.4
2019-03-10T14:32:29.213Z,96.1
2019-03-10T14:37:28.493Z,95.7
2019-03-10T14:42:28.674Z,95.0
2019-03-10T14:47:29.645Z,95.0
2019-03-10T14:52:28.419Z,90.8
2019-03-10T14:57:28.190Z,82.6
2019-03-10T15:02:28.855Z,82.6
2019-03-10T15:07:28.936Z,88.8
2019-03-10T15:12:30.702Z,90.4
2019-03-10T15:17:28.901Z,87.9
2019-03-10T15:22:29.028Z,81.9
2019-03-10T15:27:29.186Z,83.2
2019-03-10T15:32:28.603Z,78.9
2019-03-10T15:37:28.614Z,75.1
2019-03-10T15:42:29.927Z,75.0
2019-03-10T15:47:28.597Z,73.7
2019-03-10T15:52:29.353Z,72.5
2019-03-10T15:57:28.660Z,71.2
2019-03-10T16:02:29.224Z,71.2
2019-03-10T16:07:29.021Z,70.1
2019-03-10T16:12:29.157Z,71.4
2019-03-10T16:17:29.031Z,75.1
2019-03-10T16:22:29.484Z,80.1
2019-03-10T16:27:28.444Z,82.0
2019-03-10T16:32:28.706Z,83.7
2019-03-10T16:37:29.082Z,84.3
2019-03-10T16:42:28.125Z,83.9
2019-03-10T16:47:29.042Z,82.3
2019-03-10T16:52:28.733Z,78.2
2019-03-10T16:57:28.742Z,77.5
2019-03-10T17:02:29.042Z,78.2
2019-03-10T17:07:28.887Z,77.9
2019-03-10T17:12:28.010Z,76.2
2019-03-10T17:17:29.403Z,77.7
2019-03-10T17:22:28.049Z,77.8
2019-03-10T17:27:28.591Z,77.4
2019-03-10T17:32:28.733Z,78.2
2019-03-10T17:37:28.793Z,79.0
2019-03-10T17:42:29.727Z,78.8
2019-03-10T17:47:29.364Z,78.7
2019-03-10T17:52:28.590Z,78.9
2019-03-10T17:57:29.757Z,79.0
2019-03-10T18:02:28.362Z,79.2
2019-03-10T18:07:29.129Z,79.1
2019-03-10T18:12:28.573Z,79.1
2019-03-10T18:17:28.433Z,79.5
2019-03-10T18:22:28.857Z,80.0
2019-03-10T18:27:29.200Z,85.3
2019-03-10T18:32:28.721Z,88.5
2019-03-10T18:37:31.077Z,89.9
2019-03-10T18:42:28.384Z,89.9
2019-03-10T18:47:28.764Z,89.8
2019-03-10T18:52:28.611Z,89.2
2019-03-10T18:57:28.544Z,89.0
2019-03-10T19:02:29.353Z,90.6
2019-03-10T19:07:28.600Z,91.3
2019-03-10T19:12:28.671Z,92.2
2019-03-10T19:17:28.882Z,92.1
2019-03-10T19:22:28.836Z,92.6
2019-03-10T19:27:30.812Z,92.2
2019-03-10T19:32:28.144Z,92.2
2019-03-10T19:37:28.567Z,92.5
2019-03-10T19:42:28.815Z,92.9
2019-03-10T19:47:28.919Z,93.2
2019-03-10T19:52:28.866Z,93.1
2019-03-10T19:57:28.902Z,93.6
2019-03-10T20:02:27.949Z,93.6
2019-03-10T20:07:28.478Z,94.3
2019-03-10T20:12:28.510Z,93.6
2019-03-10T20:17:28.255Z,91.9
2019-03-10T20:22:30.124Z,92.0
2019-03-10T20:27:28.881Z,92.7
2019-03-10T20:32:28.398Z,92.8
2019-03-10T20:37:28.616Z,92.9
2019-03-10T20:42:29.174Z,93.4
2019-03-10T20:47:28.096Z,93.4
2019-03-10T20:52:28.107Z,93.4
2019-03-10T20:57:30.374Z,92.3
2019-03-10T21:02:28.840Z,92.5
2019-03-10T21:07:28.587Z,92.8
2019-03-10T21:12:28.092Z,92.8
2019-03-10T21:17:28.611Z,92.8
2019-03-10T21:22:27.728Z,92.1
2019-03-10T21:27:28.656Z,92.1
2019-03-10T21:32:28.223Z,92.6
2019-03-10T21:37:28.316Z,92.6
2019-03-10T21:42:28.251Z,92.2
2019-03-10T21:47:28.132Z,92.2
2019-03-10T21:52:27.788Z,92.5
2019-03-10T21:57:28.505Z,93.2
2019-03-10T22:02:28.838Z,93.2
2019-03-10T22:07:29.255Z,93.7
2019-03-10T22:12:28.335Z,93.8
2019-03-10T22:17:28.808Z,93.7
2019-03-10T22:22:28.560Z,93.7
2019-03-10T22:27:27.698Z,93.7
2019-03-10T22:32:27.614Z,93.7
2019-03-10T22:37:28.619Z,93.8
2019-03-10T22:42:28.666Z,93.7
2019-03-10T22:47:28.128Z,94.0
2019-03-10T22:52:28.170Z,93.9
2019-03-10T22:57:28.685Z,93.9
2019-03-10T23:02:28.321Z,93.7
2019-03-10T23:07:27.880Z,93.7
2019-03-10T23:12:27.795Z,93.6
2019-03-10T23:22:47.829Z,92.9
2019-03-10T23:27:47.763Z,93.3
2019-03-10T23:32:47.186Z,93.3
2019-03-10T23:37:47.390Z,93.0
2019-03-10T23:42:46.895Z,92.8
2019-03-10T23:47:46.215Z,92.8
2019-03-10T23:52:46.750Z,92.6
2019-03-10T23:57:47.156Z,92.5
